Time;durP1;ratioP1;P1;durP2;ratioP2;P2;SDS_P1;SDS_P2;PMS_P1;PMS_P2;Temp;Humidity;BMP_temperature;BMP_pressure;BME280_temperature;BME280_humidity;BME280_pressure;Samples;Min_cycle;Max_cycle;Signal;HPM_P1;HPM_P2
2023/05/13 00:01:49;;;;;;;4.40;2.60;;;13.40;99.90;;;;;;5038961;28;20044;-77
2023/05/13 00:04:14;;;;;;;4.72;2.65;;;13.40;99.90;;;;;;5093509;28;20028;-76
2023/05/13 00:06:40;;;;;;;5.07;3.42;;;13.30;99.90;;;;;;5088134;28;20090;-77
2023/05/13 00:09:05;;;;;;;5.88;3.40;;;13.30;99.90;;;;;;5089691;28;20043;-77
2023/05/13 00:11:31;;;;;;;5.95;2.88;;;13.30;99.90;;;;;;5052503;28;20032;-77
2023/05/13 00:13:57;;;;;;;5.60;3.20;;;13.30;99.90;;;;;;5054907;28;20067;-77
2023/05/13 00:16:24;;;;;;;5.68;3.03;;;13.30;99.90;;;;;;5051797;28;20043;-77
2023/05/13 00:18:50;;;;;;;6.30;3.20;;;13.20;99.90;;;;;;5055749;28;20041;-77
2023/05/13 00:21:15;;;;;;;8.20;3.30;;;13.20;99.90;;;;;;5053200;28;20037;-77
2023/05/13 00:23:41;;;;;;;5.68;3.40;;;13.20;99.90;;;;;;5086478;28;20082;-77
2023/05/13 00:26:07;;;;;;;4.72;2.63;;;13.10;99.90;;;;;;5053574;28;20456;-76
2023/05/13 00:28:32;;;;;;;10.35;3.10;;;13.10;99.90;;;;;;5055543;28;20048;-77
2023/05/13 00:30:58;;;;;;;5.20;3.03;;;13.00;99.90;;;;;;5089841;28;20116;-77
2023/05/13 00:33:23;;;;;;;5.00;2.97;;;12.90;99.90;;;;;;5041665;28;20036;-77
2023/05/13 00:35:50;;;;;;;8.30;3.25;;;12.90;99.90;;;;;;5056263;28;20049;-77
2023/05/13 00:38:16;;;;;;;6.13;3.50;;;12.90;99.90;;;;;;5058582;28;20447;-77
2023/05/13 00:40:43;;;;;;;5.15;3.25;;;13.00;99.90;;;;;;5092020;28;20044;-77
2023/05/13 00:43:09;;;;;;;5.25;2.92;;;13.00;99.90;;;;;;5036041;28;20044;-77
2023/05/13 00:45:36;;;;;;;6.10;3.50;;;12.90;99.90;;;;;;5034245;28;20037;-77
2023/05/13 00:48:05;;;;;;;8.95;3.75;;;12.90;99.90;;;;;;5040235;28;20044;-77
2023/05/13 00:50:32;;;;;;;5.32;3.55;;;12.90;99.90;;;;;;5053705;28;20048;-77
2023/05/13 00:52:58;;;;;;;5.47;3.53;;;12.90;99.90;;;;;;5037858;28;20044;-76
2023/05/13 00:55:24;;;;;;;5.75;3.20;;;12.90;99.90;;;;;;5053821;28;20115;-77
2023/05/13 00:57:49;;;;;;;6.57;3.70;;;12.80;99.90;;;;;;5052868;28;20131;-77
2023/05/13 01:00:15;;;;;;;5.38;3.10;;;12.80;99.90;;;;;;5088034;28;20128;-77
2023/05/13 01:03:01;;;;;;;7.38;3.20;;;12.80;99.90;;;;;;5055371;28;20443;-77
2023/05/13 01:05:45;;;;;;;6.40;3.15;;;12.80;99.90;;;;;;5054043;28;20359;-76
2023/05/13 01:08:45;;;;;;;6.40;3.28;;;12.80;99.90;;;;;;5052678;28;20041;-77
2023/05/13 01:11:26;;;;;;;8.05;3.17;;;12.80;99.90;;;;;;5054734;28;20402;-77
2023/05/13 01:14:04;;;;;;;5.30;3.17;;;12.80;99.90;;;;;;5059095;28;20036;-77
2023/05/13 01:16:50;;;;;;;5.93;3.20;;;12.70;99.90;;;;;;5070828;28;20417;-76
2023/05/13 01:19:34;;;;;;;;;;;12.70;99.90;;;;;;5056283;28;20044;-76
2023/05/13 01:22:00;;;;;;;6.78;3.15;;;12.70;99.90;;;;;;5053066;28;20275;-76
2023/05/13 01:24:25;;;;;;;5.75;3.47;;;12.70;99.90;;;;;;5053778;28;20048;-77
2023/05/13 01:26:51;;;;;;;5.18;2.63;;;12.70;99.90;;;;;;5037524;28;20084;-77
2023/05/13 01:29:17;;;;;;;5.63;3.60;;;12.70;99.90;;;;;;5072265;28;20051;-77
2023/05/13 01:31:45;;;;;;;6.63;3.33;;;12.60;99.90;;;;;;5034684;28;20461;-77
2023/05/13 01:34:12;;;;;;;6.78;3.10;;;12.60;99.90;;;;;;5055414;28;20041;-77
2023/05/13 01:36:38;;;;;;;5.97;3.55;;;12.60;99.90;;;;;;5052219;28;20040;-77
2023/05/13 01:39:05;;;;;;;9.57;3.72;;;12.60;99.90;;;;;;5038689;28;20037;-77
2023/05/13 01:41:30;;;;;;;6.53;3.58;;;12.50;99.90;;;;;;5057185;28;20033;-76
2023/05/13 01:43:56;;;;;;;5.72;3.50;;;12.50;99.90;;;;;;5053904;28;20457;-76
2023/05/13 01:46:22;;;;;;;5.57;3.15;;;12.50;99.90;;;;;;5037345;28;20432;-77
2023/05/13 01:48:47;;;;;;;7.10;3.58;;;12.50;99.90;;;;;;5058527;28;20041;-77
2023/05/13 01:51:13;;;;;;;6.75;3.97;;;12.50;99.90;;;;;;5052654;28;20450;-77
2023/05/13 01:53:38;;;;;;;5.70;3.05;;;12.40;99.90;;;;;;5050635;28;20044;-76
2023/05/13 01:56:07;;;;;;;7.00;3.50;;;12.40;99.90;;;;;;5058010;28;20090;-76
2023/05/13 01:58:33;;;;;;;6.05;3.63;;;12.50;99.90;;;;;;5053287;28;20570;-77
2023/05/13 02:00:59;;;;;;;6.90;3.20;;;12.40;99.90;;;;;;5037938;28;20071;-77
2023/05/13 02:03:25;;;;;;;5.72;3.10;;;12.40;99.90;;;;;;5053086;28;20327;-77
2023/05/13 02:05:50;;;;;;;5.28;3.25;;;12.40;99.90;;;;;;5038797;28;20043;-76
2023/05/13 02:08:16;;;;;;;5.50;3.22;;;12.40;99.90;;;;;;5059534;28;20028;-77
2023/05/13 02:10:41;;;;;;;5.10;3.05;;;12.40;99.90;;;;;;5052886;28;20634;-77
2023/05/13 02:13:07;;;;;;;5.60;3.17;;;12.40;99.90;;;;;;5091461;28;20398;-77
2023/05/13 02:15:33;;;;;;;7.07;3.40;;;12.40;99.90;;;;;;5040484;28;20079;-76
2023/05/13 02:17:58;;;;;;;6.32;3.55;;;12.40;99.90;;;;;;5056213;28;20028;-77
2023/05/13 02:20:25;;;;;;;5.50;3.40;;;12.40;99.90;;;;;;5042515;28;20086;-77
2023/05/13 02:22:50;;;;;;;6.32;3.72;;;12.30;99.90;;;;;;5039095;28;20044;-76
2023/05/13 02:25:16;;;;;;;6.80;3.33;;;12.30;99.90;;;;;;5062523;28;20037;-77
2023/05/13 02:27:42;;;;;;;6.80;3.17;;;12.30;99.90;;;;;;5058099;28;20144;-77
2023/05/13 02:30:08;;;;;;;7.45;3.78;;;12.30;99.90;;;;;;5058561;28;20082;-77
2023/05/13 02:32:33;;;;;;;8.25;3.90;;;12.30;99.90;;;;;;5059770;28;20090;-77
2023/05/13 02:34:59;;;;;;;7.65;3.60;;;12.20;99.90;;;;;;5042093;28;20041;-77
2023/05/13 02:37:25;;;;;;;6.70;3.67;;;12.20;99.90;;;;;;5055196;28;20025;-77
2023/05/13 02:39:51;;;;;;;7.55;3.45;;;12.20;99.90;;;;;;5061848;28;20043;-77
2023/05/13 02:42:16;;;;;;;7.28;3.70;;;12.20;99.90;;;;;;5056316;28;20036;-77
2023/05/13 02:44:42;;;;;;;6.15;3.55;;;12.20;99.90;;;;;;5039038;28;20127;-77
2023/05/13 02:47:07;;;;;;;6.82;3.67;;;12.10;99.90;;;;;;5051691;28;20037;-77
2023/05/13 02:49:33;;;;;;;4.90;3.53;;;12.20;99.90;;;;;;5059309;28;20231;-77
2023/05/13 02:51:59;;;;;;;6.13;3.90;;;12.10;99.90;;;;;;5042875;28;20945;-77
2023/05/13 02:54:24;;;;;;;6.07;3.50;;;12.10;99.90;;;;;;5061256;28;20385;-77
2023/05/13 02:56:50;;;;;;;6.72;3.70;;;12.10;99.90;;;;;;5043067;28;20513;-77
2023/05/13 02:59:15;;;;;;;6.68;3.67;;;12.00;99.90;;;;;;5055832;28;20032;-77
2023/05/13 03:01:41;;;;;;;6.75;3.80;;;12.00;99.90;;;;;;5039990;28;20186;-77
2023/05/13 03:04:07;;;;;;;6.25;3.80;;;12.00;99.90;;;;;;5059378;28;20056;-77
2023/05/13 03:06:32;;;;;;;7.22;4.47;;;12.00;99.90;;;;;;5056745;28;20425;-77
2023/05/13 03:08:58;;;;;;;7.38;3.58;;;12.00;99.90;;;;;;5059610;28;20052;-77
2023/05/13 03:11:25;;;;;;;5.60;3.60;;;11.90;99.90;;;;;;5061327;28;20040;-77
2023/05/13 03:13:51;;;;;;;8.68;3.63;;;11.90;99.90;;;;;;5055584;28;20045;-77
2023/05/13 03:16:16;;;;;;;6.78;3.75;;;11.90;99.90;;;;;;5085715;28;20032;-77
2023/05/13 03:18:42;;;;;;;8.45;3.83;;;11.80;99.90;;;;;;5056666;28;20449;-77
2023/05/13 03:21:07;;;;;;;6.22;4.18;;;11.80;99.90;;;;;;5040909;28;20043;-77
2023/05/13 03:23:33;;;;;;;7.35;4.00;;;11.80;99.90;;;;;;5061689;28;20090;-77
2023/05/13 03:26:00;;;;;;;7.10;3.53;;;11.80;99.90;;;;;;5051759;28;21617;-76
2023/05/13 03:28:26;;;;;;;7.40;4.30;;;11.70;99.90;;;;;;5049923;28;20045;-77
2023/05/13 03:30:52;;;;;;;7.00;3.72;;;11.70;99.90;;;;;;5051748;28;20097;-77
2023/05/13 03:33:17;;;;;;;8.80;4.10;;;11.70;99.90;;;;;;5092443;28;20039;-77
2023/05/13 03:35:43;;;;;;;7.65;3.67;;;11.70;99.90;;;;;;5059347;28;20078;-77
2023/05/13 03:38:08;;;;;;;6.35;4.10;;;11.70;99.90;;;;;;5056577;28;20494;-77
2023/05/13 03:40:34;;;;;;;7.50;3.95;;;11.70;99.90;;;;;;5076240;28;20087;-77
2023/05/13 03:42:59;;;;;;;6.50;4.20;;;11.70;99.90;;;;;;5054778;28;20040;-77
2023/05/13 03:45:25;;;;;;;11.20;4.65;;;11.60;99.90;;;;;;5058063;28;20123;-77
2023/05/13 03:47:51;;;;;;;6.82;4.00;;;11.70;99.90;;;;;;5061656;28;20067;-77
2023/05/13 03:50:16;;;;;;;9.45;4.60;;;11.70;99.90;;;;;;5040026;28;20054;-77
2023/05/13 03:52:42;;;;;;;7.85;3.83;;;11.60;99.90;;;;;;5057232;28;20049;-77
2023/05/13 03:55:08;;;;;;;7.80;4.18;;;11.50;99.90;;;;;;5041843;28;20434;-77
2023/05/13 03:57:33;;;;;;;8.23;4.90;;;11.50;99.90;;;;;;5054206;28;20037;-77
2023/05/13 03:59:59;;;;;;;8.00;4.57;;;11.50;99.90;;;;;;5049723;28;20047;-76
2023/05/13 04:02:24;;;;;;;8.23;5.10;;;11.50;99.90;;;;;;5054946;28;20190;-77
2023/05/13 04:04:50;;;;;;;9.05;4.82;;;11.50;99.90;;;;;;5059491;28;20032;-77
2023/05/13 04:07:15;;;;;;;7.72;3.85;;;11.50;99.90;;;;;;5087722;28;20059;-77
2023/05/13 04:09:41;;;;;;;8.13;4.25;;;11.50;99.90;;;;;;5055006;28;20052;-77
2023/05/13 04:12:07;;;;;;;9.15;5.35;;;11.50;99.90;;;;;;5053578;28;20051;-77
2023/05/13 04:14:32;;;;;;;7.55;4.10;;;11.50;99.90;;;;;;5051330;28;20108;-78
2023/05/13 04:16:58;;;;;;;8.43;4.97;;;11.50;99.90;;;;;;5040363;28;20430;-76
2023/05/13 04:19:23;;;;;;;9.55;4.80;;;11.50;99.90;;;;;;5066512;28;20398;-77
2023/05/13 04:21:49;;;;;;;7.80;4.28;;;11.50;99.90;;;;;;5058371;28;20102;-77
2023/05/13 04:24:15;;;;;;;7.70;4.30;;;11.50;99.90;;;;;;5059146;28;20075;-77
2023/05/13 04:26:41;;;;;;;7.32;4.38;;;11.40;99.90;;;;;;5059033;28;20317;-77
2023/05/13 04:29:06;;;;;;;7.60;4.38;;;11.50;99.90;;;;;;5072003;28;20074;-77
2023/05/13 04:31:32;;;;;;;7.65;4.75;;;11.40;99.90;;;;;;5052678;28;20032;-77
2023/05/13 04:33:57;;;;;;;7.85;4.20;;;11.40;99.90;;;;;;5058300;28;20470;-76
2023/05/13 04:36:23;;;;;;;7.78;4.38;;;11.40;99.90;;;;;;5053521;28;20094;-77
2023/05/13 04:38:48;;;;;;;7.55;4.32;;;11.30;99.90;;;;;;5038980;28;20032;-77
2023/05/13 04:41:14;;;;;;;8.38;4.43;;;11.30;99.90;;;;;;5033746;28;20131;-77
2023/05/13 04:43:40;;;;;;;9.27;4.10;;;11.30;99.90;;;;;;5038433;28;20045;-77
2023/05/13 04:46:05;;;;;;;7.95;4.47;;;11.40;99.90;;;;;;5052913;28;20047;-77
2023/05/13 04:48:31;;;;;;;7.50;4.28;;;11.40;99.90;;;;;;5091824;28;20494;-77
2023/05/13 04:50:57;;;;;;;9.30;4.75;;;11.40;99.90;;;;;;5056741;28;20040;-77
2023/05/13 04:53:22;;;;;;;9.50;4.50;;;11.40;99.90;;;;;;5041750;28;20044;-76
2023/05/13 04:55:49;;;;;;;8.98;4.93;;;11.40;99.90;;;;;;5055390;28;20494;-77
2023/05/13 04:58:15;;;;;;;7.80;4.38;;;11.50;99.90;;;;;;5069056;28;20151;-77
2023/05/13 05:00:41;;;;;;;8.65;4.43;;;11.50;99.90;;;;;;5052670;28;20562;-77
2023/05/13 05:03:06;;;;;;;6.93;4.00;;;11.40;99.90;;;;;;5049083;28;20045;-77
2023/05/13 05:05:32;;;;;;;8.85;4.63;;;11.40;99.90;;;;;;5057617;28;20044;-77
2023/05/13 05:07:57;;;;;;;9.57;5.07;;;11.50;99.90;;;;;;5056077;28;20036;-77
2023/05/13 05:10:23;;;;;;;8.27;4.25;;;11.50;99.90;;;;;;5055595;28;20036;-77
2023/05/13 05:12:49;;;;;;;8.77;4.70;;;11.50;99.90;;;;;;5056746;28;21599;-77
2023/05/13 05:15:15;;;;;;;6.60;4.15;;;11.50;99.90;;;;;;5040103;28;20675;-77
2023/05/13 05:17:42;;;;;;;9.77;4.53;;;11.60;99.90;;;;;;5039092;28;20071;-77
2023/05/13 05:20:09;;;;;;;10.80;4.32;;;11.60;99.90;;;;;;5053598;28;20041;-77
2023/05/13 05:22:35;;;;;;;10.18;4.80;;;11.60;99.90;;;;;;5091876;28;20044;-78
2023/05/13 05:25:01;;;;;;;9.68;4.70;;;11.60;99.90;;;;;;5037066;28;20076;-77
2023/05/13 05:27:26;;;;;;;10.25;5.20;;;11.60;99.90;;;;;;5053620;28;20099;-77
2023/05/13 05:29:52;;;;;;;8.45;4.60;;;11.70;99.90;;;;;;5035882;28;20039;-77
2023/05/13 05:32:18;;;;;;;6.90;4.20;;;11.70;99.90;;;;;;5039719;28;20174;-77
2023/05/13 05:34:44;;;;;;;7.07;4.72;;;11.80;99.90;;;;;;5055854;28;20032;-78
2023/05/13 05:37:09;;;;;;;8.73;4.72;;;11.80;99.90;;;;;;5050164;28;20033;-77
2023/05/13 05:39:35;;;;;;;10.13;4.82;;;12.00;99.90;;;;;;5052811;28;20064;-77
2023/05/13 05:42:01;;;;;;;10.32;4.65;;;12.00;99.90;;;;;;5066622;28;20044;-76
2023/05/13 05:44:26;;;;;;;8.88;4.85;;;12.10;99.90;;;;;;5044508;28;20075;-77
2023/05/13 05:46:52;;;;;;;8.13;4.90;;;12.10;99.90;;;;;;5063278;28;20569;-77
2023/05/13 05:49:18;;;;;;;13.13;4.80;;;12.20;99.90;;;;;;5060369;28;20187;-77
2023/05/13 05:51:44;;;;;;;9.02;5.15;;;12.40;99.90;;;;;;5047004;28;20399;-81
2023/05/13 05:54:09;;;;;;;10.13;4.88;;;12.50;99.90;;;;;;5040245;28;20041;-82
2023/05/13 05:56:35;;;;;;;8.35;4.35;;;12.50;99.90;;;;;;5089110;28;20040;-81
2023/05/13 05:59:00;;;;;;;6.68;4.32;;;12.60;99.90;;;;;;5093270;28;20120;-77
2023/05/13 06:01:32;;;;;;;8.30;4.55;;;12.50;99.90;;;;;;5058119;28;20120;-77
2023/05/13 06:03:58;;;;;;;9.48;4.78;;;12.50;99.90;;;;;;5058731;28;20292;-77
2023/05/13 06:06:23;;;;;;;9.68;4.88;;;12.50;99.90;;;;;;5074675;28;20293;-77
2023/05/13 06:08:49;;;;;;;8.48;4.68;;;12.50;99.90;;;;;;5061371;28;20068;-77
2023/05/13 06:11:15;;;;;;;8.63;4.72;;;12.60;99.90;;;;;;5048683;28;20505;-78
2023/05/13 06:13:40;;;;;;;7.18;4.30;;;12.70;99.90;;;;;;5045888;28;20124;-77
2023/05/13 06:16:06;;;;;;;8.65;4.85;;;12.80;99.90;;;;;;5063962;28;20036;-77
2023/05/13 06:18:31;;;;;;;8.25;4.60;;;12.80;99.90;;;;;;5065024;28;20382;-78
2023/05/13 06:20:57;;;;;;;7.95;4.38;;;12.80;99.90;;;;;;5066104;28;20030;-77
2023/05/13 06:23:23;;;;;;;7.55;4.95;;;12.80;99.90;;;;;;5063059;28;20536;-77
2023/05/13 06:25:48;;;;;;;9.10;4.95;;;13.00;99.90;;;;;;5045511;28;20032;-77
2023/05/13 06:28:14;;;;;;;10.38;4.75;;;13.20;99.90;;;;;;5043341;28;20048;-78
2023/05/13 06:30:40;;;;;;;8.70;4.90;;;13.90;99.90;;;;;;5045508;28;20509;-79
2023/05/13 06:33:09;;;;;;;9.63;5.15;;;14.80;99.90;;;;;;5059077;28;20486;-78
2023/05/13 06:35:35;;;;;;;7.90;4.55;;;15.80;99.90;;;;;;5064745;28;20033;-78
2023/05/13 06:38:01;;;;;;;8.50;4.57;;;16.70;99.90;;;;;;5060549;28;20041;-75
2023/05/13 06:40:26;;;;;;;8.65;4.63;;;17.40;99.90;;;;;;5044016;28;20025;-75
2023/05/13 06:42:52;;;;;;;7.35;4.78;;;17.40;99.90;;;;;;5057992;28;20133;-79
2023/05/13 06:45:21;;;;;;;8.50;4.53;;;17.00;99.90;;;;;;5091207;28;20056;-79
2023/05/13 06:47:49;;;;;;;7.40;4.63;;;16.50;99.90;;;;;;5042227;28;20189;-80
2023/05/13 06:50:14;;;;;;;8.77;4.40;;;16.10;99.90;;;;;;5065328;28;20041;-81
2023/05/13 06:52:40;;;;;;;7.18;3.97;;;15.80;99.90;;;;;;5040843;28;20418;-80
2023/05/13 06:55:06;;;;;;;6.72;3.83;;;15.50;99.90;;;;;;5058895;28;20103;-79
2023/05/13 06:57:31;;;;;;;7.30;4.30;;;15.30;99.90;;;;;;5044736;28;20379;-79
2023/05/13 06:59:57;;;;;;;8.13;4.30;;;15.10;99.90;;;;;;5061660;28;20477;-79
2023/05/13 07:02:22;;;;;;;6.97;3.80;;;14.90;99.90;;;;;;5061344;28;20056;-79
2023/05/13 07:04:48;;;;;;;9.00;4.38;;;14.80;99.90;;;;;;5054060;28;20040;-79
2023/05/13 07:07:14;;;;;;;6.45;4.03;;;14.80;99.90;;;;;;5059855;28;20059;-79
2023/05/13 07:09:40;;;;;;;8.35;4.78;;;14.70;99.90;;;;;;5059909;28;20037;-79
2023/05/13 07:12:05;;;;;;;7.45;4.05;;;14.60;99.90;;;;;;5044867;28;20485;-79
2023/05/13 07:14:31;;;;;;;10.25;4.90;;;14.60;99.90;;;;;;5059558;28;20041;-80
2023/05/13 07:16:57;;;;;;;5.32;3.65;;;14.60;99.90;;;;;;5059510;28;20037;-79
2023/05/13 07:19:23;;;;;;;7.93;3.92;;;14.50;99.90;;;;;;5063158;28;20593;-78
2023/05/13 07:21:48;;;;;;;9.00;4.50;;;14.50;99.90;;;;;;5066712;28;20044;-79
2023/05/13 07:24:14;;;;;;;6.13;3.83;;;14.50;99.90;;;;;;5064483;28;20037;-79
2023/05/13 07:26:39;;;;;;;6.50;3.75;;;14.40;99.90;;;;;;5040328;28;20707;-82
2023/05/13 07:29:06;;;;;;;5.95;3.42;;;14.50;99.90;;;;;;5043927;28;20055;-80
2023/05/13 07:31:31;;;;;;;6.00;3.28;;;14.50;99.90;;;;;;5054347;28;20075;-82
2023/05/13 07:33:57;;;;;;;7.65;3.45;;;14.50;99.90;;;;;;5059323;28;20060;-82
2023/05/13 07:36:22;;;;;;;10.65;3.92;;;14.60;99.90;;;;;;5056183;28;20032;-81
2023/05/13 07:38:48;;;;;;;6.53;3.75;;;14.60;99.90;;;;;;5067425;28;20041;-81
2023/05/13 07:41:14;;;;;;;6.95;3.35;;;14.70;99.90;;;;;;5046069;28;20613;-81
2023/05/13 07:43:39;;;;;;;6.25;3.25;;;14.70;99.90;;;;;;5062563;28;20037;-81
2023/05/13 07:46:05;;;;;;;5.93;3.50;;;14.70;99.90;;;;;;5060774;28;20094;-81
2023/05/13 07:48:31;;;;;;;6.78;3.88;;;14.70;99.90;;;;;;5045617;28;20075;-81
2023/05/13 07:50:57;;;;;;;6.13;3.60;;;14.70;99.90;;;;;;5075351;28;20033;-81
2023/05/13 07:53:22;;;;;;;5.68;3.28;;;14.70;99.90;;;;;;5061996;28;20043;-81
2023/05/13 07:55:48;;;;;;;9.40;4.22;;;14.70;99.90;;;;;;5058842;28;20033;-81
2023/05/13 07:58:14;;;;;;;7.22;3.65;;;14.70;99.90;;;;;;5040671;28;20072;-81
2023/05/13 08:00:39;;;;;;;7.18;3.97;;;14.80;99.90;;;;;;5059652;28;20784;-82
2023/05/13 08:03:05;;;;;;;6.75;4.07;;;14.70;99.90;;;;;;5052827;28;20091;-81
2023/05/13 08:05:30;;;;;;;7.65;3.88;;;14.80;99.90;;;;;;5044365;28;20036;-81
2023/05/13 08:07:56;;;;;;;5.35;3.45;;;14.90;99.90;;;;;;5041296;28;20037;-82
2023/05/13 08:10:22;;;;;;;8.00;3.75;;;14.90;99.90;;;;;;5061895;28;20116;-81
2023/05/13 08:12:52;;;;;;;8.07;3.47;;;14.90;99.90;;;;;;5038996;28;20037;-81
2023/05/13 08:15:18;;;;;;;6.18;3.80;;;14.90;99.90;;;;;;5090215;28;20044;-81
2023/05/13 08:17:43;;;;;;;6.57;3.70;;;14.90;99.90;;;;;;5058744;28;20421;-81
2023/05/13 08:20:10;;;;;;;6.47;3.90;;;15.00;99.90;;;;;;5060763;28;20044;-82
2023/05/13 08:22:36;;;;;;;6.32;3.38;;;15.00;99.90;;;;;;5058754;28;20037;-82
2023/05/13 08:25:02;;;;;;;6.03;3.63;;;15.10;99.90;;;;;;5060252;28;20105;-81
2023/05/13 08:27:28;;;;;;;12.15;3.72;;;15.20;99.90;;;;;;5061569;28;20080;-81
2023/05/13 08:29:53;;;;;;;6.28;2.92;;;15.20;99.90;;;;;;5055954;28;20117;-81
2023/05/13 08:32:19;;;;;;;4.03;2.45;;;15.30;99.90;;;;;;5058942;28;20132;-81
2023/05/13 08:34:44;;;;;;;6.88;3.28;;;15.30;99.90;;;;;;5038221;28;20044;-81
2023/05/13 08:37:10;;;;;;;5.43;2.90;;;15.30;99.90;;;;;;5071909;28;20500;-81
2023/05/13 08:39:36;;;;;;;5.50;2.78;;;15.40;99.90;;;;;;5057961;28;20045;-81
2023/05/13 08:42:03;;;;;;;4.93;2.83;;;15.50;99.90;;;;;;5038545;28;20044;-81
2023/05/13 08:44:30;;;;;;;3.67;2.30;;;15.50;99.90;;;;;;5044963;28;20036;-81
2023/05/13 08:47:20;;;;;;;5.63;2.78;;;15.60;99.90;;;;;;5065169;28;20044;-82
2023/05/13 08:49:47;;;;;;;4.38;2.25;;;15.60;99.90;;;;;;5056607;28;20110;-81
2023/05/13 08:52:12;;;;;;;5.95;2.72;;;15.70;99.90;;;;;;5058200;28;20091;-81
2023/05/13 08:54:38;;;;;;;4.22;2.35;;;15.70;99.90;;;;;;5042877;28;20075;-81
2023/05/13 08:57:04;;;;;;;6.80;2.95;;;15.70;99.90;;;;;;5060231;28;20209;-81
2023/05/13 08:59:29;;;;;;;3.40;2.20;;;15.80;99.90;;;;;;5043429;28;20675;-81
2023/05/13 09:01:56;;;;;;;3.78;1.92;;;15.90;99.90;;;;;;5041219;28;20033;-81
2023/05/13 09:04:23;;;;;;;4.18;2.28;;;16.00;99.90;;;;;;5075315;28;20081;-82
2023/05/13 09:06:48;;;;;;;5.38;2.22;;;16.00;99.60;;;;;;5055716;28;20040;-81
2023/05/13 09:09:14;;;;;;;5.18;2.22;;;16.10;99.60;;;;;;5041730;28;20094;-81
2023/05/13 09:11:40;;;;;;;4.88;1.75;;;16.20;99.20;;;;;;5060261;28;20525;-81
2023/05/13 09:14:07;;;;;;;5.95;2.10;;;16.20;99.00;;;;;;5061492;28;20043;-81
2023/05/13 09:16:35;;;;;;;2.55;1.60;;;16.20;99.00;;;;;;5094728;28;20037;-81
2023/05/13 09:19:05;;;;;;;4.25;2.20;;;16.30;98.80;;;;;;5061820;28;20045;-81
2023/05/13 09:21:34;;;;;;;3.83;1.77;;;16.30;98.50;;;;;;5072265;28;20051;-81
2023/05/13 09:24:07;;;;;;;3.47;1.77;;;16.30;98.60;;;;;;5062060;28;20456;-81
2023/05/13 09:26:33;;;;;;;4.05;1.60;;;16.40;98.00;;;;;;5061047;28;20110;-81
2023/05/13 09:29:22;;;;;;;3.72;2.10;;;16.50;98.20;;;;;;5044035;28;20454;-81
2023/05/13 09:32:00;;;;;;;5.30;2.15;;;16.50;97.00;;;;;;5058454;28;20515;-81
2023/05/13 09:34:33;;;;;;;3.47;1.98;;;16.60;96.20;;;;;;5057760;28;20036;-81
2023/05/13 09:37:00;;;;;;;3.90;1.80;;;16.70;97.10;;;;;;5062756;28;20125;-80
2023/05/13 09:39:27;;;;;;;5.53;2.40;;;16.70;97.20;;;;;;5062163;28;20037;-80
2023/05/13 09:41:52;;;;;;;3.92;1.85;;;16.80;97.20;;;;;;5095995;28;20044;-80
2023/05/13 09:44:20;;;;;;;3.83;2.10;;;16.90;96.90;;;;;;5042082;28;20668;-81
2023/05/13 09:46:46;;;;;;;5.65;1.77;;;16.90;96.50;;;;;;5053868;28;20036;-80
2023/05/13 09:49:13;;;;;;;4.63;2.10;;;16.90;96.00;;;;;;5061555;28;20143;-81
2023/05/13 09:51:38;;;;;;;5.60;1.90;;;17.00;95.70;;;;;;5060997;28;20177;-80
2023/05/13 09:54:05;;;;;;;4.82;1.85;;;17.00;95.20;;;;;;5061850;28;20540;-80
2023/05/13 09:56:33;;;;;;;3.15;1.63;;;17.10;95.20;;;;;;5057286;28;20059;-81
2023/05/13 09:59:00;;;;;;;2.80;1.35;;;17.20;95.00;;;;;;5041189;28;20036;-80
2023/05/13 10:01:29;;;;;;;3.67;2.00;;;17.20;94.50;;;;;;5059227;28;20032;-80
2023/05/13 10:03:57;;;;;;;3.47;1.92;;;17.40;93.90;;;;;;5057728;28;20037;-81
2023/05/13 10:06:25;;;;;;;4.55;1.85;;;17.40;93.40;;;;;;5058671;28;20047;-80
2023/05/13 10:08:52;;;;;;;2.72;1.60;;;17.40;93.10;;;;;;5045732;28;20513;-80
2023/05/13 10:11:18;;;;;;;5.68;2.30;;;17.50;93.50;;;;;;5061864;28;20033;-81
2023/05/13 10:13:49;;;;;;;5.80;2.00;;;17.50;93.60;;;;;;5028305;28;20120;-80
2023/05/13 10:16:17;;;;;;;5.47;2.08;;;17.50;93.00;;;;;;5045319;28;20351;-80
2023/05/13 10:18:43;;;;;;;3.83;1.70;;;17.50;92.80;;;;;;5044511;28;20062;-80
2023/05/13 10:21:09;;;;;;;2.95;1.90;;;17.60;92.50;;;;;;5059565;28;20047;-80
2023/05/13 10:23:35;;;;;;;4.57;2.40;;;17.70;92.20;;;;;;5093386;28;20032;-80
2023/05/13 10:26:01;;;;;;;5.07;1.73;;;17.70;91.90;;;;;;5042584;28;20064;-80
2023/05/13 10:28:28;;;;;;;5.75;1.90;;;17.70;91.40;;;;;;5055650;28;20047;-81
2023/05/13 10:30:53;;;;;;;4.28;1.88;;;17.70;91.30;;;;;;5063292;28;20041;-80
2023/05/13 10:33:20;;;;;;;4.22;1.75;;;17.80;91.20;;;;;;5045416;28;20041;-80
2023/05/13 10:36:25;;;;;;;4.43;1.77;;;17.80;90.80;;;;;;5049691;28;20028;-80
2023/05/13 10:39:17;;;;;;;3.33;1.63;;;17.90;84.60;;;;;;5063754;28;20049;-80
2023/05/13 10:42:20;;;;;;;4.03;1.60;;;17.90;82.70;;;;;;5063788;28;20052;-80
2023/05/13 10:44:46;;;;;;;4.03;2.05;;;17.90;86.20;;;;;;5076877;28;20065;-80
2023/05/13 10:47:12;;;;;;;4.68;2.13;;;18.00;90.80;;;;;;5065524;28;20539;-81
2023/05/13 10:49:38;;;;;;;3.58;1.48;;;18.00;91.10;;;;;;5059561;28;20681;-81
2023/05/13 10:52:08;;;;;;;4.22;1.95;;;18.10;90.70;;;;;;5058012;28;20490;-80
2023/05/13 10:54:40;;;;;;;3.70;1.83;;;18.10;90.20;;;;;;5048413;28;20069;-80
2023/05/13 10:57:07;;;;;;;5.40;2.10;;;18.10;90.60;;;;;;5065140;28;20037;-80
2023/05/13 10:59:34;;;;;;;4.15;1.95;;;18.10;90.10;;;;;;5060035;28;20532;-80
2023/05/13 11:02:22;;;;;;;4.05;1.98;;;18.20;90.50;;;;;;5064523;28;20594;-81
2023/05/13 11:04:59;;;;;;;3.65;1.50;;;18.20;90.10;;;;;;5046569;28;20108;-80
2023/05/13 11:07:28;;;;;;;3.45;1.50;;;18.20;88.60;;;;;;5063192;28;20041;-81
2023/05/13 11:09:53;;;;;;;4.15;1.88;;;18.30;89.10;;;;;;5062280;28;20040;-80
2023/05/13 11:12:19;;;;;;;4.30;1.67;;;18.30;88.40;;;;;;5046998;28;20040;-81
2023/05/13 11:14:44;;;;;;;5.03;2.00;;;18.40;87.60;;;;;;5062113;28;20033;-81
2023/05/13 11:17:11;;;;;;;4.47;2.00;;;18.40;87.00;;;;;;5064598;28;20041;-81
2023/05/13 11:19:37;;;;;;;4.43;1.85;;;18.40;87.40;;;;;;5063796;28;20128;-81
2023/05/13 11:22:29;;;;;;;3.00;1.70;;;18.40;88.20;;;;;;5064018;28;20487;-81
2023/05/13 11:25:07;;;;;;;4.40;1.60;;;18.50;83.90;;;;;;5077932;28;20064;-81
2023/05/13 11:27:41;;;;;;;3.78;1.60;;;18.60;84.90;;;;;;5078362;28;20141;-81
2023/05/13 11:30:25;;;;;;;2.97;1.45;;;18.70;78.20;;;;;;5074035;28;20044;-82
2023/05/13 11:32:54;;;;;;;3.40;1.65;;;18.70;74.80;;;;;;5059031;28;20090;-82
2023/05/13 11:35:20;;;;;;;2.75;1.75;;;18.70;82.30;;;;;;5063496;28;20308;-81
2023/05/13 11:37:48;;;;;;;7.50;1.83;;;18.70;82.90;;;;;;5079253;28;20044;-82
2023/05/13 11:40:32;;;;;;;4.68;2.33;;;18.70;84.30;;;;;;5060669;28;20047;-82
2023/05/13 11:42:58;;;;;;;3.38;2.10;;;18.70;83.20;;;;;;5063118;28;20032;-81
2023/05/13 11:45:25;;;;;;;4.10;2.00;;;18.60;85.10;;;;;;5062720;28;20040;-82
2023/05/13 11:47:52;;;;;;;3.40;1.80;;;18.70;83.00;;;;;;5059584;28;20413;-82
2023/05/13 11:50:23;;;;;;;3.58;1.98;;;18.70;83.00;;;;;;5045241;28;20044;-82
2023/05/13 11:52:53;;;;;;;4.57;1.90;;;18.70;81.70;;;;;;5044205;28;20115;-82
2023/05/13 11:55:29;;;;;;;3.58;1.70;;;18.70;80.80;;;;;;5061324;28;20093;-82
2023/05/13 11:57:54;;;;;;;2.38;1.63;;;18.60;75.70;;;;;;5061161;28;20045;-82
2023/05/13 12:00:38;;;;;;;2.70;1.70;;;18.60;82.10;;;;;;5062914;28;20043;-82
2023/05/13 12:03:10;;;;;;;4.70;1.85;;;18.70;75.20;;;;;;5042421;28;20411;-81
2023/05/13 12:05:36;;;;;;;3.83;1.58;;;18.70;78.80;;;;;;5059937;28;20052;-81
2023/05/13 12:08:02;;;;;;;3.30;1.80;;;18.70;79.60;;;;;;5061686;28;20040;-82
2023/05/13 12:10:28;;;;;;;2.47;1.50;;;18.80;75.80;;;;;;5060099;28;20051;-81
2023/05/13 12:12:54;;;;;;;3.13;1.63;;;18.90;74.10;;;;;;5057245;28;20068;-81
2023/05/13 12:15:20;;;;;;;2.58;1.67;;;18.90;71.50;;;;;;5057593;28;20048;-80
2023/05/13 12:17:47;;;;;;;3.22;1.70;;;19.00;72.60;;;;;;5063115;28;20075;-81
2023/05/13 12:20:17;;;;;;;4.32;1.67;;;19.00;70.90;;;;;;5058291;28;20036;-81
2023/05/13 12:22:43;;;;;;;4.07;1.40;;;19.10;67.50;;;;;;5059577;28;20497;-81
2023/05/13 12:25:30;;;;;;;4.25;1.30;;;19.10;69.00;;;;;;5060730;28;20055;-81
2023/05/13 12:27:56;;;;;;;3.33;1.67;;;19.20;66.40;;;;;;5061274;28;20063;-81
2023/05/13 12:30:22;;;;;;;2.95;1.55;;;19.00;70.00;;;;;;5060729;28;20434;-81
2023/05/13 12:32:48;;;;;;;3.58;1.60;;;19.10;69.70;;;;;;5059305;28;20734;-81
2023/05/13 12:35:13;;;;;;;5.05;1.75;;;19.10;67.40;;;;;;5040465;28;20040;-81
2023/05/13 12:37:40;;;;;;;3.67;1.58;;;19.10;67.50;;;;;;5059966;28;20043;-81
2023/05/13 12:40:10;;;;;;;2.90;1.50;;;19.10;66.60;;;;;;5059651;28;20033;-81
2023/05/13 12:42:36;;;;;;;3.13;1.73;;;19.10;64.10;;;;;;5060582;28;20036;-81
2023/05/13 12:45:02;;;;;;;2.35;1.40;;;19.10;65.90;;;;;;5036350;28;20525;-81
2023/05/13 12:47:27;;;;;;;5.47;1.73;;;19.10;64.80;;;;;;5056409;28;20047;-81